Portada
METAR-TAF:

METAR-TAF

Aeropuertos :

Aeropuerto Internacional Mitiga

Trípoli, Libia

latitud: 32-54N, longitud: 13-17E, altitud: 11 m

METAR: falta

Hora: 13:59 (11:59 UTC)

Pronóstico

El informe se hizo hace 59 minutos, a las 11:00 UTC
Pronóstico válido del 19 a las 12 UTC al 20 a las 12 UTC
Viento 10 kt del norte
Visibilidad: 8000 m
Nubes dispersas a una altura de 2500 ft
Evolucionando progresivamente
del 19 a las 20 UTC al 19 a las 22 UTC
Viento 2 kt con dirección variable
Probabilidad 30% :
Temporalmente
del 20 a las 00 UTC al 20 a las 06 UTC
Visibilidad: 3000 m
neblina
Evolucionando progresivamente
del 20 a las 07 UTC al 20 a las 09 UTC
Viento 8 kt del noroeste

TAF: HLLM 191100Z 1912/2012 35010KT 8000 SCT025 BECMG 1920/1922 VRB02KT PROB30 TEMPO 2000/2006 3000 BR BECMG 2007/2009 32008KT

Observaciones y pronósticos meteorológicos de más de 4000 aeropuertos (mensajes METAR y TAF).

Los puntos amarillos y rojos representan las estaciones disponibles.

Ponga el ratón en el punto deseado para ver el nombre de la estación.

Haga clic para ver las observaciones y los pronósticos meteorológicos.

Para cambiar el mapa : haga clic en los botones verdes con una cruz de color negro para hacer un zoom, en el botón verde con un guión para alejar o en las flechas verdes para mapas adyacentes.


METAR-TAF: